Binghamton, NY (13905)

2:48 AM EDT on September 18, 2014 (GMT -0400)
Oakdale Heights | Change Station
CLOSE
Current Station
Personal Weather Station
Location: Johnson City, NY
Elevation: 1000 ft
Nearby Weather Stations

Elev 1000 ft 42.13 °N, 75.98 °W | Updated 3 minutes ago

Clear
Clear
44.2 °F
Feels Like 44 °F
N
0.0
Wind Variable Wind from NNW
Gusts 0.0 mph

Today
High -- | Low -- °F
--% Chance of Precip.
Yesterday
High -- | Low -- °F
Precip. -- in
6:46 AM 7:08 PM
Waning Crescent, 29% visible
Pressure 29.99 in
Visibility 10.0 miles
Clouds Clear
Windchill 44 °F
Dew Point 42 °F
Humidity 91%
Rainfall 0.00 in
Snow Depth Not available.
UV 0 out of 12
Pollen 2.90 out of 12
PM2.5 Good
Flu Activity Not available.
METAR KBGM 180553Z AUTO 00000KT 10SM CLR 10/08 A2999 RMK AO2 SLP156 T01000078 10150 20100 58001

More Conditions Fewer Conditions

Pressure 29.99 in
Visibility 10.0 miles
Clouds Clear
Windchill 44 °F
Dew Point 42 °F
Humidity 91%
Rainfall 0.00 in
Snow Depth Not available.
UV 0 out of 12
Pollen 2.90 out of 12
PM2.5 Good
Flu Activity Not available.
METAR KBGM 180553Z AUTO 00000KT 10SM CLR 10/08 A2999 RMK AO2 SLP156 T01000078 10150 20100 58001

More Conditions Fewer Conditions

10-Day Weather Forecast

Almanac

Astronomy

Sep. 18, 2014 Rise Set
Actual Time 6:46 AM EDT 7:08 PM EDT
Civil Twilight 6:18 AM EDT 7:36 PM EDT
Nautical Twilight 5:45 AM EDT 8:08 PM EDT
Astronomical Twilight 5:12 AM EDT 8:42 PM EDT
Moon 1:32 AM EDT 4:01 PM EDT
Length of Visible Light 13h 17m
Length of Day
12h 21m
Tomorrow will be 2m 49s shorter.
Waning Crescent, 29% of the Moon is Illuminated
Today
Waning Crescent
Sep 24
New
Oct 1
First Quarter
Oct 8
Full
Oct 15
Last Quarter

Today's Extremes

State Highs State Lows

Community

WunderPhotos

Upload Photos

1,754,298 photos uploaded!

Nearby

Air Quality

  Air Quality AQ Index Pollutant
Yesterday Good
OZONE
Yesterday Good
PM2.5
Current Good
PM2.5
Thursday Good
PM2.5
Thursday Good
OZONE

Snow Depth

Station Depth Elevation
No new snow has been reported.

Earthquake Activity

City Distance Mag. Time & Date
No recent earthquake activity has been reported nearby.
Minimum magnitude displayed is 2.5.

Coastal Water Temperatures

Place Temperature
No Stations Reporting

Nearby Weather Stations